sensor_id;sensor_type;location;lat;lon;timestamp;pressure;altitude;pressure_sealevel;temperature;humidity
37610;BME280;23457;51.966;8.230;2022-08-21T00:00:20;101001.19;;;18.82;95.47
37610;BME280;23457;51.966;8.230;2022-08-21T00:02:59;100996.06;;;18.71;96.74
37610;BME280;23457;51.966;8.230;2022-08-21T00:05:35;100993.34;;;18.77;95.66
37610;BME280;23457;51.966;8.230;2022-08-21T00:08:02;100987.84;;;18.95;94.73
37610;BME280;23457;51.966;8.230;2022-08-21T00:10:29;101002.72;;;19.00;94.19
37610;BME280;23457;51.966;8.230;2022-08-21T00:12:55;100996.16;;;18.62;95.61
37610;BME280;23457;51.966;8.230;2022-08-21T00:15:26;100988.91;;;18.82;95.13
37610;BME280;23457;51.966;8.230;2022-08-21T00:17:54;100983.47;;;18.93;94.56
37610;BME280;23457;51.966;8.230;2022-08-21T00:20:23;100988.63;;;19.01;94.27
37610;BME280;23457;51.966;8.230;2022-08-21T00:22:49;100988.59;;;19.04;93.84
37610;BME280;23457;51.966;8.230;2022-08-21T00:25:18;100991.97;;;19.13;92.88
37610;BME280;23457;51.966;8.230;2022-08-21T00:27:51;100984.91;;;19.15;92.44
37610;BME280;23457;51.966;8.230;2022-08-21T00:30:19;100992.59;;;19.29;92.00
37610;BME280;23457;51.966;8.230;2022-08-21T00:32:49;100978.47;;;19.36;92.10
37610;BME280;23457;51.966;8.230;2022-08-21T00:35:18;100985.34;;;19.43;91.73
37610;BME280;23457;51.966;8.230;2022-08-21T00:37:46;100980.03;;;19.49;91.80
37610;BME280;23457;51.966;8.230;2022-08-21T00:40:15;100969.69;;;19.34;92.74
37610;BME280;23457;51.966;8.230;2022-08-21T00:42:42;100980.13;;;19.40;92.18
37610;BME280;23457;51.966;8.230;2022-08-21T00:45:19;100963.72;;;19.24;92.89
37610;BME280;23457;51.966;8.230;2022-08-21T00:47:45;100966.38;;;19.23;93.40
37610;BME280;23457;51.966;8.230;2022-08-21T00:50:12;100961.09;;;19.24;93.40
37610;BME280;23457;51.966;8.230;2022-08-21T00:52:47;100974.69;;;18.94;94.51
37610;BME280;23457;51.966;8.230;2022-08-21T00:55:15;100972.78;;;19.04;94.40
37610;BME280;23457;51.966;8.230;2022-08-21T00:57:47;100968.53;;;18.96;95.03
37610;BME280;23457;51.966;8.230;2022-08-21T01:00:20;100973.47;;;19.18;92.91
37610;BME280;23457;51.966;8.230;2022-08-21T01:02:48;100984.75;;;19.26;92.93
37610;BME280;23457;51.966;8.230;2022-08-21T01:05:14;100978.78;;;19.15;93.18
37610;BME280;23457;51.966;8.230;2022-08-21T01:07:41;100979.94;;;18.97;94.90
37610;BME280;23457;51.966;8.230;2022-08-21T01:10:09;100975.25;;;19.16;93.86
37610;BME280;23457;51.966;8.230;2022-08-21T01:12:51;100973.41;;;19.21;93.43
37610;BME280;23457;51.966;8.230;2022-08-21T01:15:19;100981.28;;;19.24;92.77
37610;BME280;23457;51.966;8.230;2022-08-21T01:17:47;100976.84;;;19.26;91.86
37610;BME280;23457;51.966;8.230;2022-08-21T01:20:15;100985.56;;;19.31;92.57
37610;BME280;23457;51.966;8.230;2022-08-21T01:22:42;100973.00;;;18.88;94.93
37610;BME280;23457;51.966;8.230;2022-08-21T01:25:11;100973.91;;;18.87;95.41
37610;BME280;23457;51.966;8.230;2022-08-21T01:27:38;100988.22;;;18.68;95.14
37610;BME280;23457;51.966;8.230;2022-08-21T01:30:14;100984.81;;;18.60;96.25
37610;BME280;23457;51.966;8.230;2022-08-21T01:32:42;100986.31;;;18.79;95.95
37610;BME280;23457;51.966;8.230;2022-08-21T01:35:10;100978.28;;;18.88;94.83
37610;BME280;23457;51.966;8.230;2022-08-21T01:37:38;100970.34;;;18.90;94.73
37610;BME280;23457;51.966;8.230;2022-08-21T01:40:05;100975.53;;;18.98;93.62
37610;BME280;23457;51.966;8.230;2022-08-21T01:42:33;100978.94;;;19.03;92.79
37610;BME280;23457;51.966;8.230;2022-08-21T01:45:00;100976.31;;;19.03;92.84
37610;BME280;23457;51.966;8.230;2022-08-21T01:47:26;100975.63;;;18.88;94.08
37610;BME280;23457;51.966;8.230;2022-08-21T01:49:53;100967.75;;;18.88;93.51
37610;BME280;23457;51.966;8.230;2022-08-21T01:52:20;100971.31;;;18.84;92.79
37610;BME280;23457;51.966;8.230;2022-08-21T01:54:46;100968.00;;;18.72;94.08
37610;BME280;23457;51.966;8.230;2022-08-21T01:57:21;100976.84;;;18.63;94.79
37610;BME280;23457;51.966;8.230;2022-08-21T01:59:52;100973.25;;;18.73;94.35
37610;BME280;23457;51.966;8.230;2022-08-21T02:02:19;100962.59;;;18.79;93.71
37610;BME280;23457;51.966;8.230;2022-08-21T02:04:46;100977.69;;;18.68;93.04
37610;BME280;23457;51.966;8.230;2022-08-21T02:07:13;100968.75;;;18.78;93.58
37610;BME280;23457;51.966;8.230;2022-08-21T02:09:39;100974.16;;;18.69;94.50
37610;BME280;23457;51.966;8.230;2022-08-21T02:12:10;100971.50;;;18.72;94.44
37610;BME280;23457;51.966;8.230;2022-08-21T02:14:36;100970.59;;;18.73;93.76
37610;BME280;23457;51.966;8.230;2022-08-21T02:17:04;100963.03;;;18.44;95.83
37610;BME280;23457;51.966;8.230;2022-08-21T02:19:36;100971.84;;;18.42;97.13
37610;BME280;23457;51.966;8.230;2022-08-21T02:22:08;100969.91;;;18.57;96.18
37610;BME280;23457;51.966;8.230;2022-08-21T02:24:36;100961.16;;;18.58;95.37
37610;BME280;23457;51.966;8.230;2022-08-21T02:27:20;100951.41;;;18.64;95.24
37610;BME280;23457;51.966;8.230;2022-08-21T02:29:51;100960.25;;;18.61;95.66
37610;BME280;23457;51.966;8.230;2022-08-21T02:32:18;100957.63;;;18.59;96.19
37610;BME280;23457;51.966;8.230;2022-08-21T02:34:44;100956.63;;;18.68;95.88
37610;BME280;23457;51.966;8.230;2022-08-21T02:37:12;100951.25;;;18.76;95.26
37610;BME280;23457;51.966;8.230;2022-08-21T02:39:38;100950.47;;;18.69;95.50
37610;BME280;23457;51.966;8.230;2022-08-21T02:42:05;100967.19;;;18.64;95.43
37610;BME280;23457;51.966;8.230;2022-08-21T02:44:31;100964.50;;;18.70;95.64
37610;BME280;23457;51.966;8.230;2022-08-21T02:47:00;100957.50;;;18.69;96.85
37610;BME280;23457;51.966;8.230;2022-08-21T02:49:27;100957.34;;;18.79;96.45
37610;BME280;23457;51.966;8.230;2022-08-21T02:51:53;100953.25;;;18.55;98.27
37610;BME280;23457;51.966;8.230;2022-08-21T02:54:20;100956.66;;;18.65;97.44
37610;BME280;23457;51.966;8.230;2022-08-21T02:56:46;100958.41;;;18.66;96.62
37610;BME280;23457;51.966;8.230;2022-08-21T02:59:13;100956.63;;;18.68;96.37
37610;BME280;23457;51.966;8.230;2022-08-21T03:01:39;100946.09;;;18.68;96.90
37610;BME280;23457;51.966;8.230;2022-08-21T03:04:06;100956.63;;;18.68;97.79
37610;BME280;23457;51.966;8.230;2022-08-21T03:06:32;100954.91;;;18.66;98.20
37610;BME280;23457;51.966;8.230;2022-08-21T03:09:00;100953.22;;;18.60;96.93
37610;BME280;23457;51.966;8.230;2022-08-21T03:11:26;100958.63;;;18.48;98.73
37610;BME280;23457;51.966;8.230;2022-08-21T03:13:53;100952.41;;;18.52;98.13
37610;BME280;23457;51.966;8.230;2022-08-21T03:16:19;100941.09;;;18.45;99.48
37610;BME280;23457;51.966;8.230;2022-08-21T03:18:47;100952.38;;;18.58;98.07
37610;BME280;23457;51.966;8.230;2022-08-21T03:21:13;100957.53;;;18.66;97.67
37610;BME280;23457;51.966;8.230;2022-08-21T03:23:40;100947.88;;;18.66;96.21
37610;BME280;23457;51.966;8.230;2022-08-21T03:26:09;100952.19;;;18.72;95.44
37610;BME280;23457;51.966;8.230;2022-08-21T03:28:37;100956.63;;;18.68;96.19
37610;BME280;23457;51.966;8.230;2022-08-21T03:31:03;100963.63;;;18.69;96.09
37610;BME280;23457;51.966;8.230;2022-08-21T03:33:31;100953.16;;;18.63;95.92
37610;BME280;23457;51.966;8.230;2022-08-21T03:36:05;100961.91;;;18.65;96.11
37610;BME280;23457;51.966;8.230;2022-08-21T03:38:34;100956.59;;;18.71;95.33
37610;BME280;23457;51.966;8.230;2022-08-21T03:41:02;100957.47;;;18.72;95.58
37610;BME280;23457;51.966;8.230;2022-08-21T03:43:29;100959.25;;;18.68;95.10
37610;BME280;23457;51.966;8.230;2022-08-21T03:45:58;100961.00;;;18.69;94.61
37610;BME280;23457;51.966;8.230;2022-08-21T03:48:24;100966.22;;;18.72;94.47
37610;BME280;23457;51.966;8.230;2022-08-21T03:50:52;100966.25;;;18.69;94.60
37610;BME280;23457;51.966;8.230;2022-08-21T03:53:19;100961.88;;;18.68;94.41
37610;BME280;23457;51.966;8.230;2022-08-21T03:55:47;100960.47;;;18.37;95.32
37610;BME280;23457;51.966;8.230;2022-08-21T03:58:16;100972.97;;;18.19;96.78
37610;BME280;23457;51.966;8.230;2022-08-21T04:00:45;100964.91;;;18.36;95.99
37610;BME280;23457;51.966;8.230;2022-08-21T04:03:12;100970.97;;;18.40;95.26
37610;BME280;23457;51.966;8.230;2022-08-21T04:05:38;100980.63;;;18.39;94.92
37610;BME280;23457;51.966;8.230;2022-08-21T04:08:06;100985.97;;;18.36;95.31
37610;BME280;23457;51.966;8.230;2022-08-21T04:10:36;100974.59;;;18.33;95.00
37610;BME280;23457;51.966;8.230;2022-08-21T04:13:03;100981.66;;;18.26;95.06
37610;BME280;23457;51.966;8.230;2022-08-21T04:15:30;100973.00;;;18.16;95.67
37610;BME280;23457;51.966;8.230;2022-08-21T04:17:57;100980.91;;;18.15;95.92
37610;BME280;23457;51.966;8.230;2022-08-21T04:20:23;100987.91;;;18.17;95.63
37610;BME280;23457;51.966;8.230;2022-08-21T04:22:51;100980.94;;;18.13;95.48
37610;BME280;23457;51.966;8.230;2022-08-21T04:25:21;100979.38;;;17.94;96.62
37610;BME280;23457;51.966;8.230;2022-08-21T04:27:48;100975.00;;;17.95;96.76
37610;BME280;23457;51.966;8.230;2022-08-21T04:30:15;100984.53;;;18.03;96.11
37610;BME280;23457;51.966;8.230;2022-08-21T04:32:45;100981.03;;;18.03;95.58
37610;BME280;23457;51.966;8.230;2022-08-21T04:35:17;100984.78;;;17.82;96.08
37610;BME280;23457;51.966;8.230;2022-08-21T04:37:43;100989.28;;;17.66;97.67
37610;BME280;23457;51.966;8.230;2022-08-21T04:40:12;100993.66;;;17.61;99.22
37610;BME280;23457;51.966;8.230;2022-08-21T04:42:43;100995.53;;;17.48;100.00
37610;BME280;23457;51.966;8.230;2022-08-21T04:45:27;100991.91;;;17.65;99.86
37610;BME280;23457;51.966;8.230;2022-08-21T04:47:56;100992.66;;;17.82;98.58
37610;BME280;23457;51.966;8.230;2022-08-21T04:50:29;100996.94;;;17.90;97.08
37610;BME280;23457;51.966;8.230;2022-08-21T04:52:57;100997.91;;;17.82;97.76
37610;BME280;23457;51.966;8.230;2022-08-21T04:55:25;100987.50;;;17.73;98.26
37610;BME280;23457;51.966;8.230;2022-08-21T04:57:55;100997.06;;;17.75;98.18
37610;BME280;23457;51.966;8.230;2022-08-21T05:00:23;100998.81;;;17.76;98.61
37610;BME280;23457;51.966;8.230;2022-08-21T05:02:52;100998.78;;;17.82;98.49
37610;BME280;23457;51.966;8.230;2022-08-21T05:05:23;100998.66;;;17.96;97.50
37610;BME280;23457;51.966;8.230;2022-08-21T05:07:49;100989.06;;;17.89;97.81
37610;BME280;23457;51.966;8.230;2022-08-21T05:10:16;100996.97;;;17.89;98.12
37610;BME280;23457;51.966;8.230;2022-08-21T05:12:43;101006.59;;;17.90;98.18
37610;BME280;23457;51.966;8.230;2022-08-21T05:15:12;101003.94;;;17.92;98.49
37610;BME280;23457;51.966;8.230;2022-08-21T05:17:40;101006.59;;;17.87;98.54
37610;BME280;23457;51.966;8.230;2022-08-21T05:20:08;101010.03;;;17.98;97.83
37610;BME280;23457;51.966;8.230;2022-08-21T05:22:35;101002.28;;;17.84;99.01
37610;BME280;23457;51.966;8.230;2022-08-21T05:25:02;101004.25;;;17.55;100.00
37610;BME280;23457;51.966;8.230;2022-08-21T05:27:35;101013.81;;;17.61;100.00
37610;BME280;23457;51.966;8.230;2022-08-21T05:30:06;101011.91;;;17.84;100.00
37610;BME280;23457;51.966;8.230;2022-08-21T05:32:34;101010.94;;;17.94;99.71
37610;BME280;23457;51.966;8.230;2022-08-21T05:35:02;101013.50;;;18.00;99.28
37610;BME280;23457;51.966;8.230;2022-08-21T05:37:29;101014.31;;;18.07;98.68
37610;BME280;23457;51.966;8.230;2022-08-21T05:39:55;101014.31;;;18.07;98.61
37610;BME280;23457;51.966;8.230;2022-08-21T05:42:42;101020.44;;;18.10;97.74
37610;BME280;23457;51.966;8.230;2022-08-21T05:45:09;101014.22;;;18.17;97.54
37610;BME280;23457;51.966;8.230;2022-08-21T05:47:36;101016.75;;;18.26;96.92
37610;BME280;23457;51.966;8.230;2022-08-21T05:50:03;101012.34;;;18.27;96.83
37610;BME280;23457;51.966;8.230;2022-08-21T05:52:30;101014.91;;;18.35;96.18
37610;BME280;23457;51.966;8.230;2022-08-21T05:54:57;101018.59;;;18.18;96.98
37610;BME280;23457;51.966;8.230;2022-08-21T05:57:24;101008.47;;;17.76;99.62
37610;BME280;23457;51.966;8.230;2022-08-21T05:59:51;101018.72;;;18.06;98.78
37610;BME280;23457;51.966;8.230;2022-08-21T06:02:19;101018.94;;;17.82;100.00
37610;BME280;23457;51.966;8.230;2022-08-21T06:04:46;101012.72;;;17.92;100.00
37610;BME280;23457;51.966;8.230;2022-08-21T06:07:13;101011.84;;;17.90;100.00
37610;BME280;23457;51.966;8.230;2022-08-21T06:09:40;101007.44;;;17.95;100.00
37610;BME280;23457;51.966;8.230;2022-08-21T06:12:09;101013.50;;;18.00;99.35
37610;BME280;23457;51.966;8.230;2022-08-21T06:14:37;101015.84;;;18.29;98.12
37610;BME280;23457;51.966;8.230;2022-08-21T06:17:06;101015.84;;;18.29;97.88
37610;BME280;23457;51.966;8.230;2022-08-21T06:19:34;101014.56;;;17.84;100.00
37610;BME280;23457;51.966;8.230;2022-08-21T06:22:00;101008.41;;;17.85;100.00
37610;BME280;23457;51.966;8.230;2022-08-21T06:24:27;101013.31;;;18.21;100.00
37610;BME280;23457;51.966;8.230;2022-08-21T06:26:55;101016.53;;;18.45;100.00
37610;BME280;23457;51.966;8.230;2022-08-21T06:29:22;101013.63;;;18.71;96.98
37610;BME280;23457;51.966;8.230;2022-08-21T06:31:50;101002.22;;;18.70;96.44
37610;BME280;23457;51.966;8.230;2022-08-21T06:34:17;101008.44;;;18.65;95.76
37610;BME280;23457;51.966;8.230;2022-08-21T06:36:44;101006.50;;;18.79;94.88
37610;BME280;23457;51.966;8.230;2022-08-21T06:39:11;101016.00;;;18.90;94.41
37610;BME280;23457;51.966;8.230;2022-08-21T06:41:50;101016.25;;;18.72;94.71
37610;BME280;23457;51.966;8.230;2022-08-21T06:44:18;101012.91;;;18.56;95.95
37610;BME280;23457;51.966;8.230;2022-08-21T06:46:45;101014.34;;;18.83;94.65
37610;BME280;23457;51.966;8.230;2022-08-21T06:49:13;101014.50;;;18.73;94.48
37610;BME280;23457;51.966;8.230;2022-08-21T06:51:46;101012.50;;;18.88;93.41
37610;BME280;23457;51.966;8.230;2022-08-21T06:54:13;101006.16;;;19.03;91.75
37610;BME280;23457;51.966;8.230;2022-08-21T06:56:39;101009.66;;;19.05;92.71
37610;BME280;23457;51.966;8.230;2022-08-21T06:59:06;101017.78;;;18.88;94.42
37610;BME280;23457;51.966;8.230;2022-08-21T07:01:32;101013.22;;;19.01;94.38
37610;BME280;23457;51.966;8.230;2022-08-21T07:03:59;101001.69;;;19.10;93.67
37610;BME280;23457;51.966;8.230;2022-08-21T07:06:26;101017.38;;;19.19;93.27
37610;BME280;23457;51.966;8.230;2022-08-21T07:08:54;101007.34;;;19.42;92.10
37610;BME280;23457;51.966;8.230;2022-08-21T07:11:24;101012.63;;;19.41;91.75
37610;BME280;23457;51.966;8.230;2022-08-21T07:13:52;100999.34;;;19.48;91.06
37610;BME280;23457;51.966;8.230;2022-08-21T07:16:21;101007.13;;;19.57;90.25
37610;BME280;23457;51.966;8.230;2022-08-21T07:18:48;100989.44;;;19.64;89.73
37610;BME280;23457;51.966;8.230;2022-08-21T07:21:15;101001.63;;;19.71;90.13
37610;BME280;23457;51.966;8.230;2022-08-21T07:23:48;101000.59;;;19.80;88.41
37610;BME280;23457;51.966;8.230;2022-08-21T07:26:17;100997.06;;;19.81;88.08
37610;BME280;23457;51.966;8.230;2022-08-21T07:28:44;100993.06;;;19.58;89.93
37610;BME280;23457;51.966;8.230;2022-08-21T07:31:16;100996.88;;;19.90;89.05
37610;BME280;23457;51.966;8.230;2022-08-21T07:33:43;100994.66;;;20.15;88.53
37610;BME280;23457;51.966;8.230;2022-08-21T07:36:11;100994.03;;;20.02;88.44
37610;BME280;23457;51.966;8.230;2022-08-21T07:38:37;100988.84;;;19.97;88.52
37610;BME280;23457;51.966;8.230;2022-08-21T07:41:12;100989.38;;;20.16;87.39
37610;BME280;23457;51.966;8.230;2022-08-21T07:43:40;100988.22;;;20.29;85.89
37610;BME280;23457;51.966;8.230;2022-08-21T07:46:12;100988.09;;;20.38;86.58
37610;BME280;23457;51.966;8.230;2022-08-21T07:48:39;101000.09;;;20.07;88.55
37610;BME280;23457;51.966;8.230;2022-08-21T07:51:08;100993.59;;;20.26;87.04
37610;BME280;23457;51.966;8.230;2022-08-21T07:53:36;100990.16;;;20.21;86.64
37610;BME280;23457;51.966;8.230;2022-08-21T07:56:04;100987.91;;;20.48;83.94
37610;BME280;23457;51.966;8.230;2022-08-21T07:58:32;100997.13;;;20.70;81.65
37610;BME280;23457;51.966;8.230;2022-08-21T08:00:58;100983.94;;;20.68;81.25
37610;BME280;23457;51.966;8.230;2022-08-21T08:03:26;100989.84;;;20.81;81.01
37610;BME280;23457;51.966;8.230;2022-08-21T08:05:55;100994.41;;;20.74;82.65
37610;BME280;23457;51.966;8.230;2022-08-21T08:08:21;100978.91;;;20.98;81.88
37610;BME280;23457;51.966;8.230;2022-08-21T08:10:48;100994.78;;;20.96;81.82
37610;BME280;23457;51.966;8.230;2022-08-21T08:13:16;100998.75;;;20.77;81.61
37610;BME280;23457;51.966;8.230;2022-08-21T08:15:43;100988.75;;;20.90;79.14
37610;BME280;23457;51.966;8.230;2022-08-21T08:18:10;100987.03;;;20.89;78.94
37610;BME280;23457;51.966;8.230;2022-08-21T08:20:36;100979.28;;;20.81;78.16
37610;BME280;23457;51.966;8.230;2022-08-21T08:23:03;100984.88;;;21.06;78.64
37610;BME280;23457;51.966;8.230;2022-08-21T08:25:30;100992.66;;;21.14;78.95
37610;BME280;23457;51.966;8.230;2022-08-21T08:28:03;100985.81;;;21.03;76.89
37610;BME280;23457;51.966;8.230;2022-08-21T08:30:45;100985.31;;;20.88;77.14
37610;BME280;23457;51.966;8.230;2022-08-21T08:33:12;100994.25;;;21.21;75.13
37610;BME280;23457;51.966;8.230;2022-08-21T08:35:40;100979.78;;;21.37;70.11
37610;BME280;23457;51.966;8.230;2022-08-21T08:38:08;100977.75;;;21.48;73.22
37610;BME280;23457;51.966;8.230;2022-08-21T08:41:07;100983.94;;;21.47;74.60
37610;BME280;23457;51.966;8.230;2022-08-21T08:43:36;100980.78;;;21.67;71.33
37610;BME280;23457;51.966;8.230;2022-08-21T08:46:06;100974.13;;;21.52;71.23
37610;BME280;23457;51.966;8.230;2022-08-21T08:48:43;100971.38;;;21.55;73.22
37610;BME280;23457;51.966;8.230;2022-08-21T08:51:24;100967.44;;;21.71;74.03
37610;BME280;23457;51.966;8.230;2022-08-21T08:53:57;100965.47;;;21.79;74.85
37610;BME280;23457;51.966;8.230;2022-08-21T08:56:29;100962.50;;;21.92;76.63
37610;BME280;23457;51.966;8.230;2022-08-21T08:59:02;100955.41;;;21.92;75.10
37610;BME280;23457;51.966;8.230;2022-08-21T09:01:33;100957.91;;;22.00;76.39
37610;BME280;23457;51.966;8.230;2022-08-21T09:04:04;100955.41;;;21.92;73.63
37610;BME280;23457;51.966;8.230;2022-08-21T09:06:48;100956.91;;;22.04;73.64
37610;BME280;23457;51.966;8.230;2022-08-21T09:09:34;100957.00;;;22.01;74.11
37610;BME280;23457;51.966;8.230;2022-08-21T09:12:11;100958.97;;;22.55;73.09
37610;BME280;23457;51.966;8.230;2022-08-21T09:17:24;100952.88;;;22.82;72.38
37610;BME280;23457;51.966;8.230;2022-08-21T09:20:08;100948.06;;;22.95;71.53
37610;BME280;23457;51.966;8.230;2022-08-21T09:22:51;100951.31;;;23.04;69.78
37610;BME280;23457;51.966;8.230;2022-08-21T09:25:26;100950.59;;;22.99;67.95
37610;BME280;23457;51.966;8.230;2022-08-21T09:27:54;100948.84;;;23.26;64.62
37610;BME280;23457;51.966;8.230;2022-08-21T09:30:26;100949.00;;;23.48;62.92
37610;BME280;23457;51.966;8.230;2022-08-21T09:32:54;100938.06;;;23.58;62.47
37610;BME280;23457;51.966;8.230;2022-08-21T09:35:23;100946.97;;;23.56;59.44
37610;BME280;23457;51.966;8.230;2022-08-21T09:38:02;100942.78;;;23.49;59.01
37610;BME280;23457;51.966;8.230;2022-08-21T09:40:39;100946.19;;;23.54;62.44
37610;BME280;23457;51.966;8.230;2022-08-21T09:43:18;100934.91;;;23.46;58.85
37610;BME280;23457;51.966;8.230;2022-08-21T09:45:49;100935.53;;;23.80;59.78
37610;BME280;23457;51.966;8.230;2022-08-21T09:48:24;100930.72;;;23.91;58.23
37610;BME280;23457;51.966;8.230;2022-08-21T09:50:53;100923.69;;;24.14;61.35
37610;BME280;23457;51.966;8.230;2022-08-21T09:53:28;100929.91;;;24.38;62.34
37610;BME280;23457;51.966;8.230;2022-08-21T09:56:14;100932.97;;;24.50;58.45
37610;BME280;23457;51.966;8.230;2022-08-21T09:59:01;100936.97;;;24.39;56.80
37610;BME280;23457;51.966;8.230;2022-08-21T10:01:27;100930.69;;;24.16;59.58
37610;BME280;23457;51.966;8.230;2022-08-21T10:04:06;100925.19;;;24.22;57.67
37610;BME280;23457;51.966;8.230;2022-08-21T10:06:34;100928.69;;;23.98;62.11
37610;BME280;23457;51.966;8.230;2022-08-21T10:11:31;100925.47;;;23.90;61.85
37610;BME280;23457;51.966;8.230;2022-08-21T10:14:13;100918.28;;;24.17;61.01
37610;BME280;23457;51.966;8.230;2022-08-21T10:24:33;100907.81;;;24.37;57.78
37610;BME280;23457;51.966;8.230;2022-08-21T10:35:13;100902.75;;;25.42;53.44
37610;BME280;23457;51.966;8.230;2022-08-21T10:40:31;100890.34;;;25.20;56.53
37610;BME280;23457;51.966;8.230;2022-08-21T10:46:01;100898.66;;;24.89;55.04
37610;BME280;23457;51.966;8.230;2022-08-21T10:48:36;100894.59;;;24.81;54.76
37610;BME280;23457;51.966;8.230;2022-08-21T10:51:10;100900.53;;;25.09;53.39
37610;BME280;23457;51.966;8.230;2022-08-21T10:53:50;100894.84;;;25.18;52.15
37610;BME280;23457;51.966;8.230;2022-08-21T10:56:24;100892.56;;;25.09;53.56
37610;BME280;23457;51.966;8.230;2022-08-21T11:01:33;100894.13;;;25.15;56.27
37610;BME280;23457;51.966;8.230;2022-08-21T11:04:19;100890.56;;;24.94;56.08
37610;BME280;23457;51.966;8.230;2022-08-21T11:06:51;100883.31;;;24.74;54.87
37610;BME280;23457;51.966;8.230;2022-08-21T11:09:21;100886.84;;;24.75;54.12
37610;BME280;23457;51.966;8.230;2022-08-21T11:11:56;100881.69;;;25.15;53.31
37610;BME280;23457;51.966;8.230;2022-08-21T11:14:53;100891.03;;;25.46;51.39
37610;BME280;23457;51.966;8.230;2022-08-21T11:17:32;100885.22;;;25.78;52.18
37610;BME280;23457;51.966;8.230;2022-08-21T11:25:41;100863.09;;;25.56;50.42
37610;BME280;23457;51.966;8.230;2022-08-21T11:33:49;100873.16;;;26.29;52.39
37610;BME280;23457;51.966;8.230;2022-08-21T11:36:24;100878.22;;;26.15;53.38
37610;BME280;23457;51.966;8.230;2022-08-21T11:41:48;100835.34;;;26.21;50.19
37610;BME280;23457;51.966;8.230;2022-08-21T11:44:59;100889.81;;;26.34;49.03
37610;BME280;23457;51.966;8.230;2022-08-21T11:50:43;100861.13;;;26.58;46.09
37610;BME280;23457;51.966;8.230;2022-08-21T11:53:17;100881.41;;;26.98;48.08
37610;BME280;23457;51.966;8.230;2022-08-21T11:58:28;100884.16;;;26.96;48.17
37610;BME280;23457;51.966;8.230;2022-08-21T12:01:03;100875.31;;;27.13;46.30
37610;BME280;23457;51.966;8.230;2022-08-21T12:03:38;100879.69;;;26.97;47.47
37610;BME280;23457;51.966;8.230;2022-08-21T12:06:14;100886.91;;;26.95;46.03
37610;BME280;23457;51.966;8.230;2022-08-21T12:08:59;100874.38;;;26.97;46.74
37610;BME280;23457;51.966;8.230;2022-08-21T12:11:26;100871.56;;;27.17;45.26
37610;BME280;23457;51.966;8.230;2022-08-21T12:16:32;100876.56;;;27.23;43.29
37610;BME280;23457;51.966;8.230;2022-08-21T12:29:22;100867.31;;;27.82;44.95
37610;BME280;23457;51.966;8.230;2022-08-21T12:32:00;100872.03;;;27.77;47.70
37610;BME280;23457;51.966;8.230;2022-08-21T12:34:37;100877.59;;;27.90;45.51
37610;BME280;23457;51.966;8.230;2022-08-21T12:37:37;100867.38;;;28.13;46.82
37610;BME280;23457;51.966;8.230;2022-08-21T12:43:05;100872.88;;;27.95;45.83
37610;BME280;23457;51.966;8.230;2022-08-21T12:45:44;100858.00;;;28.06;44.94
37610;BME280;23457;51.966;8.230;2022-08-21T12:48:29;100869.72;;;28.37;44.18
37610;BME280;23457;51.966;8.230;2022-08-21T12:51:08;100872.28;;;28.23;44.32
37610;BME280;23457;51.966;8.230;2022-08-21T12:53:49;100862.44;;;28.39;42.51
37610;BME280;23457;51.966;8.230;2022-08-21T12:56:19;100866.94;;;28.05;41.02
37610;BME280;23457;51.966;8.230;2022-08-21T12:58:51;100837.63;;;28.04;43.79
37610;BME280;23457;51.966;8.230;2022-08-21T13:01:27;100856.09;;;28.57;42.19
37610;BME280;23457;51.966;8.230;2022-08-21T13:03:58;100838.41;;;28.06;39.61
37610;BME280;23457;51.966;8.230;2022-08-21T13:06:36;100858.41;;;28.14;43.00
37610;BME280;23457;51.966;8.230;2022-08-21T13:09:07;100857.56;;;28.14;43.49
37610;BME280;23457;51.966;8.230;2022-08-21T13:11:36;100842.19;;;28.19;43.64
37610;BME280;23457;51.966;8.230;2022-08-21T13:14:13;100842.00;;;28.38;43.84
37610;BME280;23457;51.966;8.230;2022-08-21T13:16:42;100857.03;;;28.56;43.30
37610;BME280;23457;51.966;8.230;2022-08-21T13:19:11;100844.25;;;28.93;42.44
37610;BME280;23457;51.966;8.230;2022-08-21T13:21:49;100828.00;;;29.11;40.89
37610;BME280;23457;51.966;8.230;2022-08-21T13:24:20;100841.66;;;28.91;41.36
37610;BME280;23457;51.966;8.230;2022-08-21T13:27:28;100839.56;;;28.17;41.11
37610;BME280;23457;51.966;8.230;2022-08-21T13:50:59;100855.38;;;27.55;42.48
37610;BME280;23457;51.966;8.230;2022-08-21T13:53:43;100850.22;;;27.69;42.41
37610;BME280;23457;51.966;8.230;2022-08-21T13:56:42;100848.69;;;28.13;42.54
37610;BME280;23457;51.966;8.230;2022-08-21T13:59:10;100840.94;;;28.09;43.08
37610;BME280;23457;51.966;8.230;2022-08-21T14:01:56;100850.91;;;28.05;42.28
37610;BME280;23457;51.966;8.230;2022-08-21T14:04:33;100851.59;;;28.42;41.83
37610;BME280;23457;51.966;8.230;2022-08-21T14:07:03;100851.00;;;28.37;42.41
37610;BME280;23457;51.966;8.230;2022-08-21T14:09:42;100860.81;;;28.21;41.79
37610;BME280;23457;51.966;8.230;2022-08-21T14:12:19;100846.66;;;28.66;39.67
37610;BME280;23457;51.966;8.230;2022-08-21T14:14:51;100843.41;;;28.61;40.23
37610;BME280;23457;51.966;8.230;2022-08-21T14:17:28;100845.88;;;27.99;43.45
37610;BME280;23457;51.966;8.230;2022-08-21T14:19:59;100842.53;;;28.60;43.61
37610;BME280;23457;51.966;8.230;2022-08-21T14:27:34;100855.19;;;27.92;39.33
37610;BME280;23457;51.966;8.230;2022-08-21T14:30:27;100854.91;;;27.81;40.22
37610;BME280;23457;51.966;8.230;2022-08-21T14:32:55;100846.53;;;27.71;40.92
37610;BME280;23457;51.966;8.230;2022-08-21T14:35:22;100846.59;;;27.53;40.06
37610;BME280;23457;51.966;8.230;2022-08-21T14:37:51;100853.19;;;27.63;42.81
37610;BME280;23457;51.966;8.230;2022-08-21T14:40:19;100844.84;;;27.86;41.62